Ages, Kentucky
Current Conditions -  °F | °C
As of 1:55 AM on Saturday 01 Nov 2014 (Local Time) from KI35 Reporting Station
Overcast Overcast  
Wind Chill: 30°   Ceiling: 1300
Heat Index: 34°   Visibility: 4mi
Dew Point: 32°   Wind: 5mph
Humidity: 93%   Direction: 290°WNW
Pressure: 29.91"   Gusts: NA
Location:  36.8576°N, 83.2467°W
Report Text: KI35 010555Z AUTO 29004KT 4SM BKN013 OVC019 01/00 A2991 RMK AO1
Loading
Personal Weather Stations






























Interactive Weather Map New forecast layout! Learn more

10-Day Weather Forecast

Advertisements
Track Severe Weather on mobile